NC12 weather

Lee Creek Airport
Aurora, North Carolina, United States

Public forecast

Using degrees Fahrenheit for public forecast. Weather courtesy of forecast.io.

Closest aviation weather report (METAR) to Lee Creek Airport

Closest report is Warren Field, 16.9 nm (31.3 km) NW. Retrieved 2019/10/18 02:35 UTC (20 minutes ago):

KOCW 180235Z AUTO 00000KT 10SM CLR 10/06 A2988 RMK AO2 T01010059

Closest aviation forecast (TAF) to Lee Creek Airport

Forecast is more than 6 hours old.

Closest forecast is Coastal Carolina Regional Airport, 22.8 nm (42.3 km) SSW. Retrieved 2019/10/17 18:24 UTC (9 hours ago):

TAF KEWN 171721Z 1718/1818 29012G19KT P6SM SKC FM172300 29007KT P6SM SKC FM181200 31004KT P6SM SKC